Terminal Aerodrome Forecast
Issued by NWS Boston, MA

Home | Current Version | Previous Version | Text Only | Print | Product List | Glossary On
Versions: 1 2 3 4 5 6 7 8 9 10 11 12 13 14 15 16 17 18 19 20 21 22 23 24 25 26
000
FTUS41 KBOX 281903 AAA
TAFBDL
TAF AMD
KBDL 281903Z 2819/2924 VRB05KT 2SM -RA BR OVC008
     FM290500 36004KT 3SM BR OVC008
     FM290900 35005KT P6SM OVC015
     FM291100 34007KT P6SM BKN060
     FM291700 34012KT P6SM FEW200=

USA.gov is the U.S. government's official web portal to all federal, state and local government web resources and services.